Independence, Ca., Owens Valley School Weather observations

 Day   Time    Ave.   Ave.  Ave.  Vector  Max.   Total    Solar  
  of    of     Air    Rel.  Wind   Wind   Wind  Precip.   Rad.   
Year   Day     Temp.  Hum.  Speed  Dir.   Gust                   
2014   (PST)    F      %     mph   deg.    mph    in.     W/m2  
----------------------------------------------------------------
 211    5:50   77.6    32    5.3   323     9.8    0.00     173
 211    6:00   77.6    33    4.3   332     8.3    0.00      82
 211    6:10   76.7    34    4.0   318     8.2    0.00      69
 211    6:20   76.3    34    4.2   315     9.8    0.00      87
 211    6:30   76.7    33    3.6   312     9.8    0.00     116
 211    6:40   77.5    32    4.8   323     9.8    0.00     135
 211    6:50   77.9    31    6.6   321    11.7    0.00     157
 211    7:00   78.4    31    6.7   326    12.5    0.00     167
 211    7:10   78.7    30    6.5   325    11.1    0.00     181
 211    7:20   78.9    30    6.6   327    10.8    0.00     191
 211    7:30   79.1    29    7.8   324    14.0    0.00     198
 211    7:40   79.4    29    9.0   322    14.9    0.00     217
 211    7:50   79.9    29    7.1   320    12.2    0.00     226
 211    8:00   80.6    28    6.5   322    11.7    0.00     240
 211    8:10   81.1    28    6.7   318    12.7    0.00     254
 211    8:20   81.4    27    7.5   322    13.8    0.00     284
 211    8:30   82.0    26    6.7   317    14.0    0.00     324
 211    8:40   83.2    26    6.3   318    13.8    0.00     465
 211    8:50   85.4    24    6.5   319    12.5    0.00     661
 211    9:00   87.6    22    7.1   317    14.6    0.00     848
 211    9:10   88.0    21    7.9   318    16.3    0.00     817
 211    9:20   88.3    21    7.1   318    12.7    0.00     516
 211    9:30   87.9    21    8.5   336    14.7    0.00     499
 211    9:40   88.5    20    8.1   329    14.6    0.00     467
 211    9:50   88.5    21    8.7   342    14.9    0.00     431
 211   10:00   87.7    20    9.3   338    15.2    0.00     228
 211   10:10   87.1    21    8.0   343    13.8    0.00     134
 211   10:20   86.8    21    8.9   339    18.7    0.00     132
 211   10:30   86.5    22    8.9   339    18.1    0.00     109
 211   10:40   85.2    23   12.8   339    22.9    0.00      79
 211   10:50   84.3    25   13.7   332    25.0    0.00      71
 211   11:00   83.0    27   13.3   325    25.0    0.00      51
 211   11:10   81.5    30   13.1   322    24.3    0.00      57
 211   11:20   78.0    38   14.7   331    25.3    0.01      82
 211   11:30   76.6    42   13.6   336    23.8    0.00     147
 211   11:40   76.2    42   13.7   324    24.2    0.00     178
 211   11:50   76.7    42    9.7   330    23.4    0.00     140
 211   12:00   76.6    42   10.8   329    21.2    0.00      94
 211   12:10   75.6    43   13.0   341    23.3    0.00      54
 211   12:20   74.6    47   13.3   346    24.3    0.00      33
 211   12:30   73.5    50   12.8   340    24.2    0.00      24
 211   12:40   72.7    52    9.4   320    20.1    0.00      20
 211   12:50   71.4    57   10.4   313    20.2    0.00      18
 211   13:00   69.8    62   12.7   323    23.9    0.01      19
 211   13:10   68.7    66   10.2   320    20.7    0.00      21
 211   13:20   68.7    67   11.0   318    20.7    0.00      21
 211   13:30   68.3    70    7.4   316    14.2    0.01      20
 211   13:40   67.4    72    8.6   324    14.4    0.00      21
 211   13:50   66.8    75    6.8   314    13.3    0.02      28
 211   14:00   66.2    80    6.0   304    11.3    0.01      42
 211   14:10   66.3    80    4.3   281     9.6    0.00      33
 211   14:20   66.5    79    3.9   300     8.3    0.01      34
 211   14:30   66.3    78    5.0   313     9.0    0.01      47
 211   14:40   65.9    80    3.5   297     6.9    0.00      46
 211   14:50   66.1    81    3.6   279     8.8    0.01      60
 211   15:00   65.8    80    3.6   289     6.7    0.01      61
 211   15:10   65.6    81    4.6   269     8.2    0.00      76
 211   15:20   66.1    79    3.7   270     8.0    0.00     103
 211   15:30   66.7    80    3.5   259     7.4    0.00      80
 211   15:40   67.3    78    3.8   246     7.0    0.00      89
 211   15:50   68.7    76    2.5   236     5.2    0.00     150
 211   16:00   72.7    65    4.5   248     9.5    0.00     570
 211   16:10   75.4    58    4.3   303     9.0    0.00     456
 211   16:20   71.6    70    5.7   355    10.6    0.00     187
 211   16:30   69.1    71    6.0   332    10.9    0.00     136
 211   16:40   68.9    70    6.8   322    11.9    0.00     168
 211   16:50   70.7    67    4.8   312    10.4    0.00     277
 211   17:00   72.5    61    6.6   320    12.5    0.00     297
 211   17:10   72.9    59    6.9   318    14.0    0.00     259
 211   17:20   73.2    57    4.9   316    10.3    0.00     204
 211   17:30   74.0    54    5.2   318     9.3    0.00     162
 211   17:40   74.0    55    4.9   304     9.3    0.00     147
 211   17:50   73.4    58    4.0   295    10.1    0.00      95
 211   18:00   72.9    60    3.4   306     6.3    0.00      57
 211   18:10   72.6    61    3.4   321     6.5    0.00      35
 211   18:20   72.3    61    3.3   330     6.0    0.00      18
 211   18:30   71.4    65    2.9   341     5.4    0.00      11
 211   18:40   70.9    66    2.5   323     5.1    0.00       4
 211   18:50   70.9    64    4.0   313     7.0    0.00       2
 211   19:00   71.2    62    3.1   290     5.9    0.00       0
 211   19:10   71.3    61    2.9   280     6.3    0.00       0
 211   19:20   71.4    59    2.7   269     5.8    0.00       0
 211   19:30   71.3    58    3.2   275     6.9    0.00       0
 211   19:40   71.3    57    3.4   287     6.3    0.00       0
 211   19:50   71.4    57    3.6   292     8.0    0.00       0
 211   20:00   71.3    57    3.8   298     8.1    0.00       0
 211   20:10   71.1    57    3.3   297     6.7    0.00       0
 211   20:20   71.0    57    4.0   302     9.2    0.00       0
 211   20:30   71.0    57    4.1   310    10.0    0.00       0
 211   20:40   70.6    58    3.4   304     6.5    0.00       0
 211   20:50   70.5    58    2.6   307     6.2    0.00       0
 211   21:00   70.5    56    3.1   312     6.2    0.00       0
 211   21:10   71.0    53    4.1   311     8.4    0.00       0
 211   21:20   71.6    51    4.0   294     7.5    0.00       0
 211   21:30   72.4    48    5.0   301    10.6    0.00       0
 211   21:40   72.7    47    5.3   309     9.6    0.00       0
 211   21:50   72.4    48    5.1   318    10.8    0.00       0
 211   22:00   71.4    51    3.3   308     6.8    0.00       0
 211   22:10   70.0    55    4.2   322     7.1    0.00       0
 211   22:20   68.9    58    3.3   304     5.5    0.00       0
 211   22:30   68.7    59    2.5   295     5.0    0.00       0
 211   22:40   70.0    54    4.9   313     9.5    0.00       0
 211   22:50   70.6    53    7.1   317    12.0    0.00       0
 211   23:00   70.7    54    6.0   316    12.3    0.00       0
 211   23:10   70.4    54    3.9   300     9.6    0.00       0
 211   23:20   70.0    56    3.3   292     6.8    0.00       0
 211   23:30   69.7    57    3.4   295     8.0    0.00       0
 211   23:40   70.0    55    3.5   295     6.9    0.00       0
 211   23:50   70.2    54    4.7   308     9.9    0.00       0
 212    0:00   70.5    52    6.9   321    10.6    0.00       0
 212    0:10   70.5    52    7.1   326    11.9    0.00       0
 212    0:20   69.4    55    4.8   356     8.5    0.00       0
 212    0:30   67.7    60    2.1   345     4.7    0.00       0
 212    0:40   65.8    66    0.9   329     3.4    0.00       0
 212    0:50   65.9    64    2.3   288     4.3    0.00       0
 212    1:00   67.9    58    2.9   299     7.3    0.00       0
 212    1:10   68.4    56    2.4   304     4.7    0.00       0
 212    1:20   68.0    57    1.8     3     4.7    0.00       0
 212    1:30   66.5    62    2.4   353     3.8    0.00       0
 212    1:40   64.0    69    2.7   359     4.2    0.00       0
 212    1:50   63.0    72    1.6   306     4.5    0.00       0
 212    2:00   62.8    73    0.6   145     1.8    0.00       0
 212    2:10   63.2    71    0.5   349     3.2    0.00       0
 212    2:20   64.1    68    2.1   317     4.0    0.00       0
 212    2:30   65.3    64    3.6   314     6.6    0.00       0
 212    2:40   65.3    65    2.6   305     5.4    0.00       0
 212    2:50   65.2    65    4.1   316     8.3    0.00       0
 212    3:00   65.8    62    5.6   322     9.0    0.00       0
 212    3:10   66.1    61    6.4   322    10.9    0.00       0
 212    3:20   66.2    60    6.7   323    11.7    0.00       0
 212    3:30   65.8    61    4.9   314     7.9    0.00       0
 212    3:40   65.6    61    4.4   309    10.1    0.00       0
 212    3:50   65.4    62    4.8   314     8.5    0.00       0
 212    4:00   65.0    63    3.4   315     6.2    0.00       0
 212    4:10   64.6    63    3.0   326     4.8    0.00       0
 212    4:20   64.5    64    2.8   319     5.9    0.00       0
 212    4:30   64.4    64    2.2   279     3.5    0.00       1
 212    4:40   64.2    64    2.6   274     4.6    0.00       3
 212    4:50   64.4    64    2.6   304     4.6    0.00       8
 212    5:00   64.7    63    3.1   310     6.3    0.00      16
 212    5:10   65.3    61    5.0   314     8.5    0.00      41
 212    5:20   65.9    59    3.7   310     7.6    0.00      79
 212    5:30   66.5    59    2.1   289     3.8    0.00     106
 212    5:40   67.4    58    1.8   302     4.3    0.00     130

Return to Independence, Ca. graphs page.


Western Regional Climate Center,wrcc@dri.edu